createdAt,value
2023-05-11T00:00:42.048Z,12.87
2023-05-11T00:03:09.602Z,12.89
2023-05-11T00:05:37.185Z,12.89
2023-05-11T00:08:04.667Z,12.89
2023-05-11T00:10:32.268Z,12.77
2023-05-11T00:12:59.661Z,12.67
2023-05-11T00:15:26.993Z,12.65
2023-05-11T00:17:54.434Z,12.62
2023-05-11T00:20:23.454Z,12.55
2023-05-11T00:22:50.977Z,12.56
2023-05-11T00:25:18.311Z,12.50
2023-05-11T00:27:46.271Z,12.46
2023-05-11T00:30:17.128Z,12.29
2023-05-11T00:32:45.402Z,12.39
2023-05-11T00:35:13.224Z,12.38
2023-05-11T00:37:41.377Z,12.35
2023-05-11T00:40:09.344Z,12.32
2023-05-11T00:42:36.802Z,12.35
2023-05-11T00:45:04.577Z,12.18
2023-05-11T00:47:32.020Z,12.38
2023-05-11T00:49:59.554Z,12.30
2023-05-11T00:52:27.419Z,12.30
2023-05-11T00:54:54.808Z,12.38
2023-05-11T00:57:22.227Z,12.43
2023-05-11T00:59:49.940Z,12.55
2023-05-11T01:02:17.996Z,12.67
2023-05-11T01:04:45.916Z,12.62
2023-05-11T01:07:22.396Z,12.71
2023-05-11T01:10:00.906Z,12.80
2023-05-11T01:12:48.217Z,12.70
2023-05-11T01:15:22.027Z,12.54
2023-05-11T01:17:57.955Z,12.55
2023-05-11T01:20:30.170Z,12.43
2023-05-11T01:23:24.922Z,12.31
2023-05-11T01:26:22.893Z,12.26
2023-05-11T01:28:56.261Z,12.22
2023-05-11T01:31:30.181Z,12.18
2023-05-11T01:34:02.406Z,12.24
2023-05-11T01:36:34.917Z,12.25
2023-05-11T01:39:05.563Z,12.16
2023-05-11T01:41:36.033Z,12.10
2023-05-11T01:44:09.649Z,12.16
2023-05-11T01:46:38.671Z,12.04
2023-05-11T01:49:10.660Z,12.08
2023-05-11T01:51:39.625Z,11.96
2023-05-11T01:54:11.076Z,12.06
2023-05-11T01:56:41.361Z,12.15
2023-05-11T01:59:09.117Z,12.18
2023-05-11T02:01:37.596Z,12.12
2023-05-11T02:04:05.972Z,12.07
2023-05-11T02:06:36.749Z,12.14
2023-05-11T02:09:05.327Z,12.10
2023-05-11T02:11:35.641Z,12.13
2023-05-11T02:14:04.862Z,12.07
2023-05-11T02:16:33.860Z,12.17
2023-05-11T02:19:01.417Z,12.14
2023-05-11T02:21:31.827Z,12.16
2023-05-11T02:24:03.319Z,12.09
2023-05-11T02:26:30.710Z,12.06
2023-05-11T02:28:58.194Z,12.00
2023-05-11T02:31:29.095Z,11.93
2023-05-11T02:34:02.566Z,12.02
2023-05-11T02:36:33.338Z,12.03
2023-05-11T02:39:09.553Z,12.05
2023-05-11T02:41:43.424Z,12.07
2023-05-11T02:44:15.795Z,12.12
2023-05-11T02:46:47.960Z,12.06
2023-05-11T02:49:18.493Z,12.06
2023-05-11T02:51:47.973Z,12.09
2023-05-11T02:54:17.552Z,12.01
2023-05-11T02:56:50.071Z,12.05
2023-05-11T02:59:17.974Z,12.00
2023-05-11T03:01:45.924Z,12.00
2023-05-11T03:04:14.950Z,11.95
2023-05-11T03:06:42.455Z,11.95
2023-05-11T03:09:13.631Z,12.05
2023-05-11T03:11:47.234Z,12.06
2023-05-11T03:14:14.720Z,12.01
2023-05-11T03:16:44.185Z,12.03
2023-05-11T03:19:13.370Z,12.06
2023-05-11T03:21:41.178Z,12.09
2023-05-11T03:24:12.532Z,12.02
2023-05-11T03:26:41.628Z,11.95
2023-05-11T03:29:12.713Z,11.98
2023-05-11T03:31:40.194Z,11.93
2023-05-11T03:34:07.731Z,12.01
2023-05-11T03:36:40.623Z,12.03
2023-05-11T03:39:11.532Z,12.00
2023-05-11T03:41:41.136Z,12.05
2023-05-11T03:44:14.090Z,11.99
2023-05-11T03:46:45.662Z,12.02
2023-05-11T03:49:15.830Z,12.06
2023-05-11T03:51:44.814Z,12.12
2023-05-11T03:54:13.072Z,12.12
2023-05-11T03:56:40.912Z,12.14
2023-05-11T03:59:09.739Z,12.16
2023-05-11T04:01:37.322Z,11.99
2023-05-11T04:04:05.097Z,12.09
2023-05-11T04:06:32.528Z,12.10
2023-05-11T04:09:08.294Z,12.15
2023-05-11T04:11:39.822Z,12.14
2023-05-11T04:14:07.191Z,12.22
2023-05-11T04:16:34.648Z,12.09
2023-05-11T04:19:02.434Z,12.15
2023-05-11T04:21:29.972Z,12.14
2023-05-11T04:23:57.440Z,12.12
2023-05-11T04:26:24.950Z,12.09
2023-05-11T04:28:52.405Z,12.06
2023-05-11T04:31:20.661Z,12.13
2023-05-11T04:33:48.750Z,12.14
2023-05-11T04:36:17.074Z,12.11
2023-05-11T04:38:44.830Z,12.07
2023-05-11T04:41:13.827Z,12.04
2023-05-11T04:43:41.895Z,12.09
2023-05-11T04:46:10.767Z,12.15
2023-05-11T04:48:38.369Z,12.08
2023-05-11T04:51:06.274Z,12.05
2023-05-11T04:53:36.932Z,12.01
2023-05-11T04:56:04.551Z,12.01
2023-05-11T04:58:32.071Z,12.06
2023-05-11T05:00:59.535Z,12.05
2023-05-11T05:03:27.099Z,12.12
2023-05-11T05:05:55.704Z,12.10
2023-05-11T05:08:23.230Z,12.06
2023-05-11T05:10:50.671Z,12.19
2023-05-11T05:13:18.223Z,12.35
2023-05-11T05:15:45.719Z,12.37
2023-05-11T05:18:13.094Z,12.30
2023-05-11T05:20:40.973Z,12.18
2023-05-11T05:23:08.385Z,12.26
2023-05-11T05:25:35.750Z,12.22
2023-05-11T05:28:03.164Z,12.18
2023-05-11T05:30:30.651Z,12.16
2023-05-11T05:32:58.172Z,12.18
2023-05-11T05:35:26.047Z,12.24
2023-05-11T05:37:53.894Z,12.27
2023-05-11T05:40:21.857Z,12.23
2023-05-11T05:42:53.494Z,12.28
2023-05-11T05:45:23.047Z,12.28
2023-05-11T05:47:51.992Z,12.21
2023-05-11T05:50:20.587Z,12.26
2023-05-11T05:52:49.113Z,12.29
2023-05-11T05:55:16.678Z,12.30
2023-05-11T05:57:46.068Z,12.30
2023-05-11T06:00:13.967Z,12.26
2023-05-11T06:02:41.635Z,12.27
2023-05-11T06:05:14.833Z,12.32
2023-05-11T06:07:42.997Z,12.35
2023-05-11T06:10:10.564Z,12.48
2023-05-11T06:12:38.041Z,12.35
2023-05-11T06:15:06.637Z,12.35
2023-05-11T06:17:36.612Z,12.32
2023-05-11T06:20:07.263Z,12.38
2023-05-11T06:22:35.471Z,12.35
2023-05-11T06:25:04.086Z,12.39
2023-05-11T06:27:31.487Z,12.56
2023-05-11T06:29:59.833Z,12.47
2023-05-11T06:32:34.274Z,12.40
2023-05-11T06:35:02.656Z,12.30
2023-05-11T06:37:30.533Z,12.33
2023-05-11T06:39:59.273Z,12.40
2023-05-11T06:42:27.774Z,12.39
2023-05-11T06:45:05.896Z,12.36
2023-05-11T06:47:34.837Z,12.36
2023-05-11T06:50:02.313Z,12.35
2023-05-11T06:52:30.025Z,12.40
2023-05-11T06:54:57.568Z,12.46
2023-05-11T06:57:24.900Z,12.44
2023-05-11T06:59:52.311Z,12.42
2023-05-11T07:02:19.635Z,12.38
2023-05-11T07:04:47.145Z,12.45
2023-05-11T07:07:14.659Z,12.47
2023-05-11T07:09:42.199Z,12.44
2023-05-11T07:12:09.550Z,12.50
2023-05-11T07:14:38.362Z,12.53
2023-05-11T07:17:05.950Z,12.61
2023-05-11T07:19:33.763Z,12.59
2023-05-11T07:22:02.118Z,12.65
2023-05-11T07:24:30.403Z,12.53
2023-05-11T07:27:02.097Z,12.48
2023-05-11T07:29:29.552Z,12.58
2023-05-11T07:31:56.920Z,12.56
2023-05-11T07:34:24.436Z,12.53
2023-05-11T07:36:51.741Z,12.56
2023-05-11T07:39:19.451Z,12.50
2023-05-11T07:41:47.186Z,12.67
2023-05-11T07:44:14.685Z,12.76
2023-05-11T07:46:42.226Z,12.73
2023-05-11T07:49:17.165Z,12.78
2023-05-11T07:51:46.156Z,12.83
2023-05-11T07:54:13.650Z,12.82
2023-05-11T07:56:41.942Z,12.82
2023-05-11T07:59:09.376Z,12.85
2023-05-11T08:01:36.810Z,12.78
2023-05-11T08:04:04.217Z,12.71
2023-05-11T08:06:31.573Z,12.81
2023-05-11T08:08:58.963Z,12.83
2023-05-11T08:11:26.314Z,12.80
2023-05-11T08:13:53.747Z,12.75
2023-05-11T08:16:21.286Z,12.73
2023-05-11T08:18:49.921Z,12.87
2023-05-11T08:21:17.643Z,12.87
2023-05-11T08:23:45.247Z,12.87
2023-05-11T08:26:12.610Z,12.93
2023-05-11T08:28:39.953Z,13.02
2023-05-11T08:31:08.771Z,13.05
2023-05-11T08:33:38.731Z,13.09
2023-05-11T08:36:07.267Z,13.12
2023-05-11T08:38:35.519Z,13.18
2023-05-11T08:41:03.205Z,13.12
2023-05-11T08:43:34.533Z,13.07
2023-05-11T08:46:04.791Z,13.05
2023-05-11T08:48:32.518Z,13.24
2023-05-11T08:51:00.486Z,13.33
2023-05-11T08:53:28.334Z,13.35
2023-05-11T08:55:58.564Z,13.43
2023-05-11T08:58:27.447Z,13.53
2023-05-11T09:00:56.039Z,13.46
2023-05-11T09:03:23.717Z,13.41
2023-05-11T09:05:52.292Z,13.47
2023-05-11T09:08:20.596Z,13.50
2023-05-11T09:10:49.404Z,13.61
2023-05-11T09:13:19.452Z,13.60
2023-05-11T09:15:46.870Z,13.65
2023-05-11T09:18:14.417Z,13.70
2023-05-11T09:20:44.749Z,13.78
2023-05-11T09:23:16.821Z,13.73
2023-05-11T09:25:44.117Z,13.80
2023-05-11T09:28:24.842Z,13.84
2023-05-11T09:30:53.482Z,13.76
2023-05-11T09:33:25.842Z,13.80
2023-05-11T09:35:53.500Z,13.59
2023-05-11T09:38:23.080Z,13.66
2023-05-11T09:40:51.362Z,13.84
2023-05-11T09:43:27.259Z,13.82
2023-05-11T09:45:57.379Z,13.84
2023-05-11T09:48:27.201Z,13.79
2023-05-11T09:51:05.820Z,13.64
2023-05-11T09:53:43.369Z,13.67
2023-05-11T09:56:12.488Z,13.74
2023-05-11T09:58:50.669Z,13.63
2023-05-11T10:01:27.770Z,13.66
2023-05-11T10:04:13.272Z,13.60
2023-05-11T10:06:50.813Z,13.58
2023-05-11T10:09:25.615Z,13.70
2023-05-11T10:11:55.451Z,13.59
2023-05-11T10:14:24.811Z,13.67
2023-05-11T10:16:52.708Z,13.65
2023-05-11T10:19:20.397Z,13.76
2023-05-11T10:21:48.196Z,13.67
2023-05-11T10:24:17.145Z,13.79
2023-05-11T10:26:45.931Z,13.81
2023-05-11T10:29:13.975Z,13.72
2023-05-11T10:31:42.276Z,13.83
2023-05-11T10:34:10.690Z,13.84
2023-05-11T10:36:39.066Z,13.89
2023-05-11T10:39:06.460Z,13.93
2023-05-11T10:41:47.362Z,13.88
2023-05-11T10:44:36.024Z,14.04
2023-05-11T10:47:22.122Z,14.04
2023-05-11T10:50:16.714Z,14.08
2023-05-11T10:53:15.209Z,14.16
2023-05-11T10:56:01.235Z,14.23
2023-05-11T10:58:46.709Z,14.25
2023-05-11T11:01:29.033Z,14.17
2023-05-11T11:04:02.868Z,14.16
2023-05-11T11:06:31.568Z,14.11
2023-05-11T11:09:01.215Z,14.01
2023-05-11T11:11:33.834Z,14.10
2023-05-11T11:14:03.746Z,14.11
2023-05-11T11:16:34.732Z,14.18
2023-05-11T11:19:33.120Z,14.26
2023-05-11T11:22:01.819Z,14.11
2023-05-11T11:24:38.429Z,14.09
2023-05-11T11:27:08.403Z,14.07
2023-05-11T11:29:37.340Z,14.14
2023-05-11T11:32:19.823Z,14.07
2023-05-11T11:34:47.992Z,14.04
2023-05-11T11:37:16.719Z,14.04
2023-05-11T11:39:44.141Z,13.98
2023-05-11T11:42:13.734Z,13.94
2023-05-11T11:44:43.752Z,14.03
2023-05-11T11:47:17.995Z,14.15
2023-05-11T11:49:51.361Z,14.19
2023-05-11T11:52:27.897Z,14.12
2023-05-11T11:54:57.136Z,14.07
2023-05-11T11:57:33.815Z,14.14
2023-05-11T12:00:10.745Z,14.20
2023-05-11T12:02:45.458Z,14.27
2023-05-11T12:05:14.194Z,14.20
2023-05-11T12:07:43.895Z,14.20
2023-05-11T12:10:14.078Z,14.15
2023-05-11T12:12:45.869Z,14.28
2023-05-11T12:15:31.775Z,14.30
2023-05-11T12:18:02.106Z,14.32
2023-05-11T12:20:29.569Z,14.36
2023-05-11T12:22:57.016Z,14.48
2023-05-11T12:25:24.590Z,14.47
2023-05-11T12:27:55.435Z,14.40
2023-05-11T12:30:30.559Z,14.49
2023-05-11T12:33:04.232Z,14.55
2023-05-11T12:35:33.977Z,14.55
2023-05-11T12:38:02.623Z,14.64
2023-05-11T12:40:31.171Z,14.63
2023-05-11T12:43:00.695Z,14.72
2023-05-11T12:45:29.297Z,14.78
2023-05-11T12:47:58.385Z,14.80
2023-05-11T12:50:25.905Z,14.75
2023-05-11T12:52:53.288Z,14.76
2023-05-11T12:55:31.075Z,14.88
2023-05-11T12:58:09.210Z,14.93
2023-05-11T13:00:36.820Z,14.83
2023-05-11T13:03:04.751Z,15.07
2023-05-11T13:05:32.379Z,15.11
2023-05-11T13:08:01.862Z,15.12
2023-05-11T13:10:29.721Z,15.15
2023-05-11T13:12:57.164Z,15.14
2023-05-11T13:15:25.955Z,15.21
2023-05-11T13:18:03.480Z,15.16
2023-05-11T13:20:33.718Z,15.03
2023-05-11T13:23:08.372Z,15.12
2023-05-11T13:25:53.958Z,15.13
2023-05-11T13:28:24.429Z,15.05
2023-05-11T13:30:59.122Z,15.11
2023-05-11T13:33:26.753Z,15.15
2023-05-11T13:35:54.251Z,15.16
2023-05-11T13:38:21.716Z,15.10
2023-05-11T13:40:49.148Z,15.16
2023-05-11T13:43:16.550Z,15.05
2023-05-11T13:45:44.024Z,15.05
2023-05-11T13:48:11.440Z,14.96
2023-05-11T13:50:38.890Z,14.94
2023-05-11T13:53:06.298Z,14.94
2023-05-11T13:55:35.330Z,14.96
2023-05-11T13:58:02.695Z,14.92
2023-05-11T14:00:34.906Z,14.97
2023-05-11T14:03:02.620Z,14.95
2023-05-11T14:05:30.226Z,14.91
2023-05-11T14:07:57.937Z,14.97
2023-05-11T14:10:26.095Z,15.05
2023-05-11T14:12:53.526Z,15.04
2023-05-11T14:15:21.041Z,15.16
2023-05-11T14:17:48.812Z,15.01
2023-05-11T14:20:16.534Z,14.87
2023-05-11T14:22:43.960Z,14.84
2023-05-11T14:25:11.280Z,14.81
2023-05-11T14:27:38.649Z,14.90
2023-05-11T14:30:07.337Z,14.88
2023-05-11T14:32:34.831Z,14.98
2023-05-11T14:35:02.238Z,15.00
2023-05-11T14:37:29.771Z,14.87
2023-05-11T14:39:57.209Z,14.88
2023-05-11T14:42:24.752Z,14.85
2023-05-11T14:44:52.273Z,14.94
2023-05-11T14:47:19.654Z,14.87
2023-05-11T14:49:47.196Z,14.78
2023-05-11T14:52:14.679Z,14.79
2023-05-11T14:54:42.605Z,14.69
2023-05-11T14:57:10.107Z,14.70
2023-05-11T14:59:47.606Z,14.74
2023-05-11T15:02:26.038Z,14.73
2023-05-11T15:04:53.742Z,14.73
2023-05-11T15:07:21.321Z,14.79
2023-05-11T15:09:49.716Z,14.61
2023-05-11T15:12:17.192Z,14.50
2023-05-11T15:14:44.552Z,14.56
2023-05-11T15:17:11.900Z,14.52
2023-05-11T15:19:39.276Z,14.57
2023-05-11T15:22:06.714Z,14.58
2023-05-11T15:24:36.829Z,14.49
2023-05-11T15:27:04.556Z,14.49
2023-05-11T15:29:32.736Z,14.56
2023-05-11T15:32:00.209Z,14.53
2023-05-11T15:34:27.995Z,14.59
2023-05-11T15:36:58.620Z,14.53
2023-05-11T15:39:25.952Z,14.52
2023-05-11T15:41:53.317Z,14.60
2023-05-11T15:44:20.753Z,14.65
2023-05-11T15:46:51.133Z,14.60
2023-05-11T15:49:18.479Z,14.55
2023-05-11T15:51:45.910Z,14.46
2023-05-11T15:54:13.221Z,14.52
2023-05-11T15:56:40.660Z,14.48
2023-05-11T15:59:07.989Z,14.53
2023-05-11T16:01:35.743Z,14.50
2023-05-11T16:04:03.706Z,14.49
2023-05-11T16:06:32.091Z,14.50
2023-05-11T16:09:02.048Z,14.45
2023-05-11T16:11:29.629Z,14.37
2023-05-11T16:13:57.401Z,14.37
2023-05-11T16:16:25.318Z,14.41
2023-05-11T16:18:52.768Z,14.36
2023-05-11T16:21:20.186Z,14.37
2023-05-11T16:23:47.590Z,14.35
2023-05-11T16:26:14.966Z,14.34
2023-05-11T16:28:43.223Z,14.33
2023-05-11T16:31:10.614Z,14.36
2023-05-11T16:33:38.035Z,14.30
2023-05-11T16:36:05.660Z,14.35
2023-05-11T16:38:33.037Z,14.31
2023-05-11T16:41:00.639Z,14.31
2023-05-11T16:43:28.115Z,14.21
2023-05-11T16:45:55.868Z,14.24
2023-05-11T16:48:23.230Z,14.22
2023-05-11T16:50:50.695Z,14.33
2023-05-11T16:53:20.221Z,14.28
2023-05-11T16:55:47.721Z,14.19
2023-05-11T16:58:15.102Z,14.31
2023-05-11T17:00:42.438Z,14.37
2023-05-11T17:03:09.894Z,14.46
2023-05-11T17:05:37.687Z,14.33
2023-05-11T17:08:07.549Z,14.35
2023-05-11T17:10:35.754Z,14.38
2023-05-11T17:13:03.093Z,14.42
2023-05-11T17:15:31.706Z,14.35
2023-05-11T17:17:59.074Z,14.41
2023-05-11T17:20:26.706Z,14.34
2023-05-11T17:22:54.032Z,14.36
2023-05-11T17:25:21.474Z,14.30
2023-05-11T17:27:48.839Z,14.27
2023-05-11T17:30:17.373Z,14.29
2023-05-11T17:32:45.197Z,14.30
2023-05-11T17:35:13.074Z,14.24
2023-05-11T17:37:40.387Z,14.12
2023-05-11T17:40:11.789Z,14.10
2023-05-11T17:42:39.258Z,14.10
2023-05-11T17:45:07.806Z,14.11
2023-05-11T17:47:35.232Z,14.06
2023-05-11T17:50:02.729Z,13.98
2023-05-11T17:52:30.057Z,13.99
2023-05-11T17:54:57.550Z,13.98
2023-05-11T17:57:25.585Z,13.98
2023-05-11T17:59:53.614Z,13.93
2023-05-11T18:02:21.066Z,13.98
2023-05-11T18:04:48.603Z,13.97
2023-05-11T18:07:15.949Z,13.97
2023-05-11T18:09:43.555Z,13.95
2023-05-11T18:12:11.783Z,13.86
2023-05-11T18:14:39.210Z,13.85
2023-05-11T18:17:06.602Z,13.84
2023-05-11T18:19:34.131Z,13.79
2023-05-11T18:22:01.550Z,13.78
2023-05-11T18:24:31.199Z,13.73
2023-05-11T18:26:58.672Z,13.72
2023-05-11T18:29:26.178Z,13.67
2023-05-11T18:31:53.747Z,13.69
2023-05-11T18:34:21.278Z,13.68
2023-05-11T18:36:48.594Z,13.68
2023-05-11T18:39:16.059Z,13.67
2023-05-11T18:41:43.972Z,13.71
2023-05-11T18:44:11.391Z,13.69
2023-05-11T18:46:39.016Z,13.67
2023-05-11T18:49:06.510Z,13.65
2023-05-11T18:51:33.902Z,13.58
2023-05-11T18:54:01.374Z,13.55
2023-05-11T18:56:31.321Z,13.55
2023-05-11T18:58:59.005Z,13.51
2023-05-11T19:01:36.248Z,13.46
2023-05-11T19:04:14.512Z,13.36
2023-05-11T19:06:41.912Z,13.43
2023-05-11T19:09:09.358Z,13.41
2023-05-11T19:11:40.191Z,13.40
2023-05-11T19:14:07.784Z,13.44
2023-05-11T19:16:35.863Z,13.41
2023-05-11T19:19:04.004Z,13.42
2023-05-11T19:21:31.622Z,13.35
2023-05-11T19:23:59.068Z,13.43
2023-05-11T19:26:26.849Z,13.49
2023-05-11T19:28:54.197Z,13.46
2023-05-11T19:31:22.767Z,13.42
2023-05-11T19:33:50.088Z,13.39
2023-05-11T19:36:17.876Z,13.35
2023-05-11T19:38:45.256Z,13.38
2023-05-11T19:41:13.344Z,13.39
2023-05-11T19:43:40.803Z,13.40
2023-05-11T19:46:11.058Z,13.41
2023-05-11T19:48:38.787Z,13.38
2023-05-11T19:51:06.276Z,13.45
2023-05-11T19:53:36.976Z,13.39
2023-05-11T19:56:04.664Z,13.37
2023-05-11T19:58:32.351Z,13.38
2023-05-11T20:01:00.030Z,13.41
2023-05-11T20:03:28.881Z,13.40
2023-05-11T20:05:56.512Z,13.37
2023-05-11T20:08:23.947Z,13.41
2023-05-11T20:10:51.619Z,13.41
2023-05-11T20:13:19.129Z,13.37
2023-05-11T20:15:46.887Z,13.34
2023-05-11T20:18:14.400Z,13.40
2023-05-11T20:20:41.986Z,13.32
2023-05-11T20:23:09.432Z,13.38
2023-05-11T20:25:40.102Z,13.36
2023-05-11T20:28:07.524Z,13.37
2023-05-11T20:30:34.925Z,13.40
2023-05-11T20:35:35.710Z,13.39
2023-05-11T20:38:03.142Z,13.33
2023-05-11T20:40:30.714Z,13.32
2023-05-11T20:42:58.171Z,13.35
2023-05-11T20:45:25.863Z,13.36
2023-05-11T20:47:53.287Z,13.39
2023-05-11T20:50:21.629Z,13.34
2023-05-11T20:52:49.086Z,13.30
2023-05-11T20:55:17.714Z,13.27
2023-05-11T20:57:45.358Z,13.21
2023-05-11T21:00:16.147Z,13.27
2023-05-11T21:02:44.544Z,13.24
2023-05-11T21:05:12.052Z,13.20
2023-05-11T21:07:39.601Z,13.17
2023-05-11T21:10:07.386Z,13.20
2023-05-11T21:12:34.747Z,13.23
2023-05-11T21:15:02.247Z,13.22
2023-05-11T21:17:30.050Z,13.18
2023-05-11T21:19:57.430Z,13.18
2023-05-11T21:22:24.786Z,13.21
2023-05-11T21:24:52.218Z,13.21
2023-05-11T21:27:19.625Z,13.26
2023-05-11T21:29:48.180Z,13.20
2023-05-11T21:32:15.551Z,13.19
2023-05-11T21:34:43.795Z,13.19
2023-05-11T21:37:14.505Z,13.21
2023-05-11T21:39:42.197Z,13.25
2023-05-11T21:42:09.688Z,13.21
2023-05-11T21:44:37.302Z,13.24
2023-05-11T21:47:05.146Z,13.26
2023-05-11T21:49:33.432Z,13.27
2023-05-11T21:52:00.808Z,13.19
2023-05-11T21:54:28.138Z,13.22
2023-05-11T21:56:55.493Z,13.23
2023-05-11T21:59:26.617Z,13.23
2023-05-11T22:01:56.630Z,13.20
2023-05-11T22:04:24.068Z,13.27
2023-05-11T22:06:51.561Z,13.25
2023-05-11T22:09:18.952Z,13.25
2023-05-11T22:11:46.422Z,13.23
2023-05-11T22:14:13.773Z,13.21
2023-05-11T22:16:41.330Z,13.18
2023-05-11T22:19:09.067Z,13.18
2023-05-11T22:21:36.478Z,13.17
2023-05-11T22:24:04.338Z,13.20
2023-05-11T22:26:31.827Z,13.17
2023-05-11T22:28:59.264Z,13.14
2023-05-11T22:31:27.146Z,13.15
2023-05-11T22:33:54.977Z,13.17
2023-05-11T22:36:22.353Z,13.17
2023-05-11T22:38:49.876Z,13.22
2023-05-11T22:41:17.321Z,13.16
2023-05-11T22:43:44.643Z,13.16
2023-05-11T22:46:12.476Z,13.16
2023-05-11T22:48:39.898Z,13.11
2023-05-11T22:51:07.748Z,13.06
2023-05-11T22:53:35.096Z,13.09
2023-05-11T22:56:07.569Z,13.09
2023-05-11T22:58:35.113Z,13.15
2023-05-11T23:01:02.531Z,13.13
2023-05-11T23:03:30.354Z,13.13
2023-05-11T23:05:57.749Z,13.00
2023-05-11T23:08:26.683Z,13.06
2023-05-11T23:10:54.224Z,13.05
2023-05-11T23:13:21.604Z,13.07
2023-05-11T23:15:49.367Z,13.11
2023-05-11T23:18:17.014Z,13.10
2023-05-11T23:20:44.439Z,13.12
2023-05-11T23:23:12.128Z,13.09
2023-05-11T23:25:39.544Z,13.05
2023-05-11T23:28:11.416Z,12.94
2023-05-11T23:30:38.935Z,12.97
2023-05-11T23:33:06.739Z,12.97
2023-05-11T23:35:34.157Z,13.06
2023-05-11T23:38:01.525Z,13.00
2023-05-11T23:40:29.055Z,13.04
2023-05-11T23:42:57.046Z,12.92
2023-05-11T23:45:26.120Z,12.89
2023-05-11T23:47:53.763Z,12.99
2023-05-11T23:50:21.285Z,12.99
2023-05-11T23:52:49.685Z,12.93
2023-05-11T23:55:17.869Z,12.91
2023-05-11T23:57:45.276Z,12.87
